createdAt,value
2023-08-21T00:00:06.303Z,11.40
2023-08-21T00:02:34.146Z,11.47
2023-08-21T00:05:01.993Z,11.37
2023-08-21T00:07:29.900Z,11.63
2023-08-21T00:09:59.140Z,11.83
2023-08-21T00:12:26.958Z,11.80
2023-08-21T00:14:54.847Z,11.40
2023-08-21T00:17:22.739Z,11.60
2023-08-21T00:19:50.568Z,11.23
2023-08-21T00:22:18.489Z,11.13
2023-08-21T00:24:46.377Z,10.87
2023-08-21T00:27:15.644Z,11.50
2023-08-21T00:29:43.512Z,11.80
2023-08-21T00:32:13.564Z,11.30
2023-08-21T00:34:41.434Z,11.77
2023-08-21T00:37:09.313Z,12.40
2023-08-21T00:39:37.150Z,11.07
2023-08-21T00:42:05.109Z,11.23
2023-08-21T00:44:34.320Z,12.10
2023-08-21T00:47:02.509Z,11.10
2023-08-21T00:49:31.487Z,11.60
2023-08-21T00:51:59.596Z,11.23
2023-08-21T00:54:27.725Z,11.73
2023-08-21T00:56:55.855Z,11.63
2023-08-21T00:59:24.610Z,11.73
2023-08-21T01:01:54.033Z,11.13
2023-08-21T01:04:22.264Z,10.53
2023-08-21T01:06:51.177Z,11.10
2023-08-21T01:09:26.367Z,10.53
2023-08-21T01:12:02.705Z,9.93
2023-08-21T01:14:33.012Z,10.10
2023-08-21T01:17:06.145Z,10.47
2023-08-21T01:19:39.340Z,10.60
2023-08-21T01:22:07.327Z,10.50
2023-08-21T01:24:36.752Z,10.53
2023-08-21T01:27:04.790Z,10.23
2023-08-21T01:29:33.185Z,10.67
2023-08-21T01:32:06.227Z,9.87
2023-08-21T01:34:35.505Z,9.73
2023-08-21T01:37:03.595Z,10.20
2023-08-21T01:39:31.751Z,10.03
2023-08-21T01:42:01.501Z,9.50
2023-08-21T01:44:30.159Z,9.93
2023-08-21T01:46:58.005Z,9.87
2023-08-21T01:49:25.863Z,10.33
2023-08-21T01:51:53.724Z,10.53
2023-08-21T01:54:21.636Z,10.00
2023-08-21T01:56:49.520Z,10.20
2023-08-21T01:59:19.203Z,9.97
2023-08-21T02:01:47.029Z,9.97
2023-08-21T02:04:14.861Z,9.87
2023-08-21T02:06:42.756Z,9.67
2023-08-21T02:09:10.693Z,9.40
2023-08-21T02:11:38.592Z,10.00
2023-08-21T02:14:06.553Z,9.40
2023-08-21T02:16:35.871Z,9.90
2023-08-21T02:19:03.699Z,9.87
2023-08-21T02:21:31.568Z,9.47
2023-08-21T02:23:59.463Z,9.80
2023-08-21T02:26:27.262Z,10.30
2023-08-21T02:28:55.176Z,9.13
2023-08-21T02:31:23.168Z,9.37
2023-08-21T02:33:52.906Z,9.33
2023-08-21T02:36:20.860Z,9.70
2023-08-21T02:38:48.766Z,9.50
2023-08-21T02:41:18.105Z,10.10
2023-08-21T02:43:46.325Z,10.30
2023-08-21T02:46:14.246Z,10.60
2023-08-21T02:48:42.112Z,10.37
2023-08-21T02:51:11.316Z,9.80
2023-08-21T02:53:39.209Z,9.37
2023-08-21T02:56:07.109Z,10.30
2023-08-21T02:58:35.096Z,9.83
2023-08-21T03:01:02.972Z,9.03
2023-08-21T03:03:30.850Z,9.47
2023-08-21T03:05:58.719Z,10.03
2023-08-21T03:08:27.916Z,10.27
2023-08-21T03:10:55.755Z,9.97
2023-08-21T03:13:23.720Z,9.63
2023-08-21T03:15:51.579Z,9.53
2023-08-21T03:18:19.453Z,10.23
2023-08-21T03:20:47.656Z,9.57
2023-08-21T03:23:15.630Z,10.17
2023-08-21T03:25:44.918Z,9.80
2023-08-21T03:28:12.821Z,9.90
2023-08-21T03:30:41.693Z,10.70
2023-08-21T03:33:09.864Z,9.30
2023-08-21T03:35:37.792Z,10.27
2023-08-21T03:38:05.837Z,9.67
2023-08-21T03:40:33.738Z,9.60
2023-08-21T03:43:03.037Z,9.37
2023-08-21T03:45:30.864Z,9.33
2023-08-21T03:47:58.750Z,10.00
2023-08-21T03:50:26.601Z,9.67
2023-08-21T03:52:54.498Z,10.00
2023-08-21T03:55:22.408Z,10.00
2023-08-21T03:57:50.441Z,9.70
2023-08-21T04:00:19.735Z,10.43
2023-08-21T04:02:47.721Z,10.03
2023-08-21T04:05:15.811Z,10.00
2023-08-21T04:07:43.665Z,10.43
2023-08-21T04:10:11.820Z,9.93
2023-08-21T04:12:39.867Z,10.50
2023-08-21T04:15:09.120Z,9.70
2023-08-21T04:17:38.638Z,10.17
2023-08-21T04:20:07.606Z,9.87
2023-08-21T04:22:35.542Z,9.80
2023-08-21T04:25:03.417Z,9.47
2023-08-21T04:27:31.440Z,9.47
2023-08-21T04:29:59.332Z,10.83
2023-08-21T04:32:27.306Z,9.47
2023-08-21T04:34:56.586Z,9.80
2023-08-21T04:37:25.627Z,10.33
2023-08-21T04:39:53.592Z,9.30
2023-08-21T04:42:21.863Z,10.37
2023-08-21T04:44:49.776Z,10.20
2023-08-21T04:47:25.184Z,10.17
2023-08-21T04:49:53.270Z,9.83
2023-08-21T04:52:22.924Z,10.63
2023-08-21T04:54:51.368Z,9.90
2023-08-21T04:57:19.666Z,10.83
2023-08-21T04:59:47.588Z,10.40
2023-08-21T05:02:15.603Z,10.20
2023-08-21T05:04:43.476Z,10.23
2023-08-21T05:07:11.343Z,9.90
2023-08-21T05:09:40.604Z,9.90
2023-08-21T05:12:09.814Z,9.97
2023-08-21T05:14:37.995Z,10.13
2023-08-21T05:17:06.073Z,10.20
2023-08-21T05:19:33.979Z,10.47
2023-08-21T05:22:01.860Z,9.90
2023-08-21T05:24:30.783Z,10.13
2023-08-21T05:27:01.782Z,10.40
2023-08-21T05:29:29.754Z,10.33
2023-08-21T05:31:57.598Z,9.47
2023-08-21T05:34:26.764Z,9.70
2023-08-21T05:36:55.795Z,9.97
2023-08-21T05:39:23.777Z,10.00
2023-08-21T05:41:51.902Z,9.70
2023-08-21T05:44:21.287Z,10.60
2023-08-21T05:46:49.302Z,9.47
2023-08-21T05:49:17.158Z,10.10
2023-08-21T05:51:44.975Z,9.93
2023-08-21T05:54:12.868Z,9.87
2023-08-21T05:56:40.732Z,9.60
2023-08-21T05:59:08.617Z,9.93
2023-08-21T06:01:37.853Z,9.50
2023-08-21T06:04:06.108Z,9.70
2023-08-21T06:06:34.138Z,9.57
2023-08-21T06:09:02.041Z,10.43
2023-08-21T06:11:29.910Z,9.13
2023-08-21T06:14:00.249Z,10.13
2023-08-21T06:16:28.407Z,9.87
2023-08-21T06:18:57.806Z,9.30
2023-08-21T06:21:25.632Z,9.43
2023-08-21T06:23:53.522Z,9.97
2023-08-21T06:26:21.397Z,9.97
2023-08-21T06:28:50.575Z,10.00
2023-08-21T06:31:18.480Z,10.27
2023-08-21T06:33:46.408Z,9.83
2023-08-21T06:36:16.131Z,9.93
2023-08-21T06:38:45.461Z,10.53
2023-08-21T06:41:13.476Z,9.50
2023-08-21T06:43:45.359Z,9.70
2023-08-21T06:46:13.685Z,9.77
2023-08-21T06:48:42.492Z,9.70
2023-08-21T06:51:10.342Z,10.07
2023-08-21T06:53:39.764Z,9.70
2023-08-21T06:56:08.033Z,9.97
2023-08-21T06:58:35.843Z,10.40
2023-08-21T07:01:03.804Z,10.67
2023-08-21T07:03:31.761Z,10.67
2023-08-21T07:06:01.232Z,10.10
2023-08-21T07:08:29.814Z,10.30
2023-08-21T07:10:59.061Z,10.77
2023-08-21T07:13:28.447Z,10.70
2023-08-21T07:15:57.316Z,10.27
2023-08-21T07:18:25.258Z,10.20
2023-08-21T07:20:54.603Z,10.73
2023-08-21T07:23:22.935Z,10.63
2023-08-21T07:25:50.823Z,10.43
2023-08-21T07:28:20.369Z,10.67
2023-08-21T07:30:48.389Z,10.13
2023-08-21T07:33:16.536Z,10.60
2023-08-21T07:35:45.549Z,10.80
2023-08-21T07:38:13.487Z,9.97
2023-08-21T07:40:41.376Z,10.30
2023-08-21T07:43:09.770Z,10.47
2023-08-21T07:45:40.786Z,10.47
2023-08-21T07:48:14.751Z,10.73
2023-08-21T07:50:43.273Z,10.20
2023-08-21T07:53:11.688Z,10.67
2023-08-21T07:55:39.709Z,11.70
2023-08-21T07:58:07.550Z,10.47
2023-08-21T08:00:35.437Z,10.33
2023-08-21T08:03:05.251Z,10.07
2023-08-21T08:05:35.093Z,10.10
2023-08-21T08:08:03.536Z,9.33
2023-08-21T08:10:31.766Z,9.93
2023-08-21T08:12:59.607Z,9.93
2023-08-21T08:15:27.542Z,10.03
2023-08-21T08:17:56.444Z,10.10
2023-08-21T08:20:27.413Z,10.10
2023-08-21T08:22:55.399Z,9.67
2023-08-21T08:25:23.478Z,9.63
2023-08-21T08:27:51.448Z,9.63
2023-08-21T08:30:20.976Z,10.30
2023-08-21T08:32:48.933Z,10.27
2023-08-21T08:35:17.041Z,10.10
2023-08-21T08:37:46.683Z,9.43
2023-08-21T08:40:14.620Z,10.80
2023-08-21T08:42:42.542Z,9.50
2023-08-21T08:45:10.851Z,9.30
2023-08-21T08:47:38.778Z,9.77
2023-08-21T08:50:08.256Z,9.63
2023-08-21T08:52:37.826Z,9.87
2023-08-21T08:55:08.904Z,10.30
2023-08-21T08:57:36.948Z,10.10
2023-08-21T09:00:05.983Z,8.97
2023-08-21T09:02:34.152Z,10.37
2023-08-21T09:05:02.585Z,9.73
2023-08-21T09:07:30.855Z,9.60
2023-08-21T09:09:58.718Z,9.93
2023-08-21T09:12:27.986Z,10.53
2023-08-21T09:14:55.917Z,9.60
2023-08-21T09:17:24.877Z,9.90
2023-08-21T09:19:52.805Z,10.10
2023-08-21T09:22:21.205Z,9.07
2023-08-21T09:25:07.953Z,8.90
2023-08-21T09:27:38.248Z,10.00
2023-08-21T09:30:06.957Z,10.20
2023-08-21T09:32:54.468Z,10.07
2023-08-21T09:35:22.358Z,9.70
2023-08-21T09:37:50.208Z,9.77
2023-08-21T09:40:18.150Z,9.13
2023-08-21T09:42:47.416Z,10.50
2023-08-21T09:45:15.350Z,9.70
2023-08-21T09:47:43.260Z,9.70
2023-08-21T09:50:11.670Z,10.07
2023-08-21T09:52:39.529Z,9.33
2023-08-21T09:55:08.224Z,8.77
2023-08-21T09:57:36.487Z,9.17
2023-08-21T10:00:16.321Z,8.67
2023-08-21T10:02:44.656Z,8.87
2023-08-21T10:05:12.892Z,8.10
2023-08-21T10:07:41.751Z,8.10
2023-08-21T10:10:10.690Z,8.13
2023-08-21T10:12:38.558Z,7.73
2023-08-21T10:15:10.614Z,7.93
2023-08-21T10:17:39.326Z,7.60
2023-08-21T10:20:10.607Z,8.10
2023-08-21T10:22:41.452Z,7.60
2023-08-21T10:25:16.797Z,7.20
2023-08-21T10:27:47.281Z,7.57
2023-08-21T10:30:18.256Z,8.23
2023-08-21T10:32:49.820Z,7.77
2023-08-21T10:35:18.392Z,8.00
2023-08-21T10:38:13.630Z,8.20
2023-08-21T10:40:42.797Z,8.20
2023-08-21T10:43:41.651Z,7.53
2023-08-21T10:46:10.975Z,7.53
2023-08-21T10:48:39.311Z,7.70
2023-08-21T10:51:08.382Z,8.20
2023-08-21T10:53:36.506Z,8.40
2023-08-21T10:56:05.340Z,7.67
2023-08-21T10:58:36.979Z,8.00
2023-08-21T11:01:05.024Z,8.37
2023-08-21T11:03:34.254Z,7.80
2023-08-21T11:06:03.799Z,7.37
2023-08-21T11:08:31.908Z,7.33
2023-08-21T11:10:59.837Z,7.57
2023-08-21T11:13:27.929Z,7.53
2023-08-21T11:16:02.690Z,7.70
2023-08-21T11:18:35.589Z,7.17
2023-08-21T11:21:09.714Z,8.13
2023-08-21T11:23:38.718Z,7.63
2023-08-21T11:26:20.122Z,7.80
2023-08-21T11:28:50.161Z,7.00
2023-08-21T11:31:18.821Z,7.60
2023-08-21T11:33:53.360Z,6.70
2023-08-21T11:36:21.468Z,7.60
2023-08-21T11:39:01.122Z,6.90
2023-08-21T11:41:30.228Z,7.30
2023-08-21T11:44:04.190Z,8.13
2023-08-21T11:46:32.213Z,8.23
2023-08-21T11:49:03.384Z,7.43
2023-08-21T11:51:31.335Z,6.87
2023-08-21T11:53:59.133Z,7.63
2023-08-21T11:56:30.134Z,7.80
2023-08-21T11:59:00.230Z,7.33
2023-08-21T12:01:28.238Z,7.47
2023-08-21T12:03:57.208Z,6.73
2023-08-21T12:06:28.196Z,7.13
2023-08-21T12:08:56.511Z,7.27
2023-08-21T12:11:24.524Z,8.13
2023-08-21T12:13:53.139Z,8.40
2023-08-21T12:16:21.111Z,8.23
2023-08-21T12:18:49.636Z,7.53
2023-08-21T12:21:17.512Z,7.90
2023-08-21T12:23:46.774Z,7.43
2023-08-21T12:26:19.758Z,7.63
2023-08-21T12:28:47.637Z,7.50
2023-08-21T12:31:15.633Z,7.43
2023-08-21T12:33:43.792Z,7.30
2023-08-21T12:36:11.773Z,7.10
2023-08-21T12:38:39.649Z,7.43
2023-08-21T12:41:08.938Z,6.97
2023-08-21T12:43:36.769Z,7.20
2023-08-21T12:46:05.651Z,7.30
2023-08-21T12:48:33.603Z,6.57
2023-08-21T12:51:01.472Z,6.97
2023-08-21T12:53:29.409Z,6.93
2023-08-21T12:55:57.266Z,7.87
2023-08-21T12:58:26.937Z,7.30
2023-08-21T13:00:55.095Z,8.47
2023-08-21T13:03:23.166Z,8.80
2023-08-21T13:05:51.463Z,8.77
2023-08-21T13:08:19.451Z,7.93
2023-08-21T13:10:47.901Z,7.37
2023-08-21T13:13:15.755Z,7.03
2023-08-21T13:15:45.972Z,7.10
2023-08-21T13:18:15.711Z,7.40
2023-08-21T13:20:44.049Z,8.03
2023-08-21T13:23:12.095Z,8.23
2023-08-21T13:25:39.940Z,7.77
2023-08-21T13:28:09.407Z,7.17
2023-08-21T13:30:38.808Z,7.53
2023-08-21T13:33:08.383Z,7.23
2023-08-21T13:35:36.321Z,6.90
2023-08-21T13:38:04.984Z,6.83
2023-08-21T13:40:32.925Z,6.60
2023-08-21T13:43:02.634Z,7.07
2023-08-21T13:45:30.934Z,6.67
2023-08-21T13:47:58.802Z,6.40
2023-08-21T13:50:28.315Z,6.23
2023-08-21T13:52:56.983Z,6.70
2023-08-21T13:55:25.224Z,6.63
2023-08-21T13:57:53.128Z,6.23
2023-08-21T14:00:21.200Z,6.57
2023-08-21T14:02:49.186Z,7.07
2023-08-21T14:05:17.088Z,6.40
2023-08-21T14:07:47.014Z,6.63
2023-08-21T14:10:15.734Z,7.17
2023-08-21T14:12:43.791Z,6.53
2023-08-21T14:15:11.974Z,7.03
2023-08-21T14:17:40.743Z,6.63
2023-08-21T14:20:09.949Z,6.13
2023-08-21T14:22:37.908Z,6.53
2023-08-21T14:25:07.946Z,6.03
2023-08-21T14:27:36.028Z,6.70
2023-08-21T14:30:05.411Z,6.87
2023-08-21T14:32:35.152Z,6.30
2023-08-21T14:35:05.103Z,6.57
2023-08-21T14:37:33.036Z,7.20
2023-08-21T14:40:00.922Z,7.80
2023-08-21T14:42:30.301Z,8.10
2023-08-21T14:44:58.310Z,7.63
2023-08-21T14:47:26.330Z,7.73
2023-08-21T14:49:54.818Z,7.47
2023-08-21T14:52:22.841Z,8.60
2023-08-21T14:54:50.909Z,8.37
2023-08-21T14:57:18.823Z,7.47
2023-08-21T14:59:48.082Z,7.97
2023-08-21T15:02:16.360Z,8.73
2023-08-21T15:04:45.170Z,7.87
2023-08-21T15:07:13.047Z,7.67
2023-08-21T15:09:40.943Z,7.10
2023-08-21T15:12:10.084Z,7.23
2023-08-21T15:14:37.989Z,7.77
2023-08-21T15:17:18.331Z,7.10
2023-08-21T15:19:49.496Z,7.07
2023-08-21T15:22:17.431Z,6.97
2023-08-21T15:24:45.322Z,6.53
2023-08-21T15:27:14.671Z,6.77
2023-08-21T15:29:42.574Z,6.50
2023-08-21T15:32:11.812Z,6.60
2023-08-21T15:34:39.734Z,6.27
2023-08-21T15:37:07.644Z,7.37
2023-08-21T15:39:35.612Z,6.40
2023-08-21T15:42:03.493Z,6.07
2023-08-21T15:44:31.633Z,6.30
2023-08-21T15:47:24.267Z,6.20
2023-08-21T15:49:49.572Z,6.77
2023-08-21T15:52:17.476Z,6.23
2023-08-21T15:54:51.425Z,6.73
2023-08-21T15:57:19.536Z,6.63
2023-08-21T15:59:47.517Z,6.40
2023-08-21T16:02:15.377Z,6.13
2023-08-21T16:04:43.220Z,6.15
2023-08-21T16:07:12.600Z,7.50
2023-08-21T16:09:40.580Z,6.55
2023-08-21T16:12:08.994Z,6.67
2023-08-21T16:14:36.868Z,6.57
2023-08-21T16:17:07.742Z,6.63
2023-08-21T16:19:35.587Z,7.37
2023-08-21T16:22:04.536Z,8.23
2023-08-21T16:24:33.810Z,9.37
2023-08-21T16:27:02.091Z,8.87
2023-08-21T16:29:29.963Z,8.07
2023-08-21T16:31:57.851Z,7.20
2023-08-21T16:34:25.864Z,6.90
2023-08-21T16:36:53.817Z,6.67
2023-08-21T16:39:21.893Z,6.50
2023-08-21T16:41:51.192Z,6.37
2023-08-21T16:44:22.073Z,6.40
2023-08-21T16:46:49.956Z,6.33
2023-08-21T16:49:17.812Z,5.93
2023-08-21T16:51:45.786Z,6.20
2023-08-21T16:54:14.254Z,6.27
2023-08-21T16:56:42.154Z,6.10
2023-08-21T16:59:11.473Z,5.90
2023-08-21T17:01:39.403Z,5.50
2023-08-21T17:04:07.660Z,6.33
2023-08-21T17:06:35.530Z,5.90
2023-08-21T17:09:05.316Z,5.73
2023-08-21T17:11:33.227Z,6.00
2023-08-21T17:14:01.036Z,5.50
2023-08-21T17:16:30.265Z,6.23
2023-08-21T17:18:58.174Z,6.07
2023-08-21T17:21:28.205Z,6.03
2023-08-21T17:23:58.293Z,6.37
2023-08-21T17:26:26.131Z,5.97
2023-08-21T17:28:55.059Z,6.10
2023-08-21T17:31:22.999Z,6.60
2023-08-21T17:33:52.611Z,6.20
2023-08-21T17:36:20.649Z,6.00
2023-08-21T17:38:48.468Z,6.23
2023-08-21T17:41:16.474Z,6.13
2023-08-21T17:43:44.657Z,6.00
2023-08-21T17:46:12.720Z,6.60
2023-08-21T17:48:40.620Z,6.23
2023-08-21T17:51:09.906Z,5.97
2023-08-21T17:53:37.835Z,5.77
2023-08-21T17:56:06.048Z,6.60
2023-08-21T17:58:34.420Z,6.43
2023-08-21T18:01:02.883Z,6.60
2023-08-21T18:03:30.767Z,6.23
2023-08-21T18:05:58.888Z,6.50
2023-08-21T18:08:29.273Z,6.80
2023-08-21T18:10:57.360Z,6.97
2023-08-21T18:13:25.562Z,6.70
2023-08-21T18:15:53.466Z,7.20
2023-08-21T18:18:21.315Z,7.33
2023-08-21T18:20:50.581Z,8.13
2023-08-21T18:23:19.140Z,8.07
2023-08-21T18:25:48.846Z,8.73
2023-08-21T18:28:18.081Z,7.73
2023-08-21T18:30:46.008Z,8.40
2023-08-21T18:33:13.977Z,8.00
2023-08-21T18:35:41.940Z,9.57
2023-08-21T18:38:10.091Z,8.20
2023-08-21T18:40:38.001Z,8.00
2023-08-21T18:43:07.408Z,7.77
2023-08-21T18:45:35.540Z,8.03
2023-08-21T18:48:04.506Z,7.30
2023-08-21T18:50:37.641Z,7.63
2023-08-21T18:53:06.686Z,7.50
2023-08-21T18:55:38.382Z,6.73
2023-08-21T18:58:07.955Z,7.40
2023-08-21T19:00:35.889Z,7.23
2023-08-21T19:03:04.375Z,7.17
2023-08-21T19:05:32.458Z,7.20
2023-08-21T19:08:00.474Z,8.50
2023-08-21T19:10:28.738Z,7.40
2023-08-21T19:12:56.623Z,8.07
2023-08-21T19:15:26.761Z,8.17
2023-08-21T19:17:54.658Z,7.37
2023-08-21T19:20:22.662Z,7.53
2023-08-21T19:22:52.692Z,7.33
2023-08-21T19:25:22.012Z,7.80
2023-08-21T19:27:49.916Z,7.77
2023-08-21T19:30:17.942Z,8.20
2023-08-21T19:32:47.232Z,7.40
2023-08-21T19:35:15.131Z,7.63
2023-08-21T19:37:43.653Z,7.30
2023-08-21T19:40:12.714Z,8.07
2023-08-21T19:42:40.632Z,7.87
2023-08-21T19:45:10.157Z,8.60
2023-08-21T19:47:38.400Z,7.93
2023-08-21T19:50:09.176Z,8.03
2023-08-21T19:52:37.019Z,7.90
2023-08-21T19:55:05.227Z,8.30
2023-08-21T19:57:33.111Z,8.03
2023-08-21T20:00:00.994Z,8.10
2023-08-21T20:02:28.896Z,7.70
2023-08-21T20:04:57.114Z,7.60
2023-08-21T20:07:26.354Z,8.33
2023-08-21T20:09:54.196Z,7.67
2023-08-21T20:12:22.025Z,7.70
2023-08-21T20:14:50.160Z,8.17
2023-08-21T20:17:18.341Z,7.93
2023-08-21T20:19:46.924Z,8.77
2023-08-21T20:22:14.867Z,9.43
2023-08-21T20:24:46.752Z,9.63
2023-08-21T20:27:14.583Z,8.60
2023-08-21T20:29:42.478Z,8.67
2023-08-21T20:32:10.301Z,8.67
2023-08-21T20:34:38.312Z,8.90
2023-08-21T20:37:08.449Z,8.83
2023-08-21T20:39:36.399Z,8.67
2023-08-21T20:42:06.381Z,8.30
2023-08-21T20:44:34.486Z,8.37
2023-08-21T20:47:02.946Z,8.73
2023-08-21T20:49:31.240Z,9.10
2023-08-21T20:51:59.114Z,8.63
2023-08-21T20:54:26.939Z,9.47
2023-08-21T20:56:54.785Z,9.50
2023-08-21T20:59:24.349Z,9.27
2023-08-21T21:01:52.902Z,9.60
2023-08-21T21:04:20.819Z,9.37
2023-08-21T21:06:49.707Z,9.80
2023-08-21T21:09:17.872Z,9.63
2023-08-21T21:11:45.721Z,9.90
2023-08-21T21:14:13.611Z,9.60
2023-08-21T21:16:42.876Z,10.10
2023-08-21T21:19:10.776Z,9.40
2023-08-21T21:21:38.643Z,9.50
2023-08-21T21:24:06.845Z,10.23
2023-08-21T21:26:34.732Z,9.60
2023-08-21T21:29:05.744Z,9.63
2023-08-21T21:31:33.712Z,9.37
2023-08-21T21:34:04.170Z,9.63
2023-08-21T21:36:32.251Z,9.33
2023-08-21T21:39:00.103Z,9.87
2023-08-21T21:41:27.947Z,9.93
2023-08-21T21:43:55.815Z,9.60
2023-08-21T21:46:26.591Z,9.90
2023-08-21T21:48:55.437Z,9.70
2023-08-21T21:51:24.784Z,10.07
2023-08-21T21:53:52.785Z,9.73
2023-08-21T21:56:20.632Z,9.97
2023-08-21T21:58:50.249Z,9.87
2023-08-21T22:01:18.652Z,10.20
2023-08-21T22:03:46.649Z,10.90
2023-08-21T22:06:15.649Z,10.23
2023-08-21T22:08:44.957Z,10.40
2023-08-21T22:11:13.882Z,10.40
2023-08-21T22:13:41.763Z,10.50
2023-08-21T22:16:09.804Z,11.07
2023-08-21T22:18:38.315Z,11.23
2023-08-21T22:21:08.717Z,10.90
2023-08-21T22:23:37.293Z,10.70
2023-08-21T22:26:06.490Z,10.67
2023-08-21T22:28:34.376Z,10.27
2023-08-21T22:31:02.247Z,10.60
2023-08-21T22:33:30.310Z,11.57
2023-08-21T22:35:58.215Z,11.30
2023-08-21T22:38:26.029Z,11.03
2023-08-21T22:40:53.863Z,11.13
2023-08-21T22:43:23.136Z,11.60
2023-08-21T22:45:51.069Z,11.07
2023-08-21T22:48:18.963Z,11.77
2023-08-21T22:50:46.860Z,11.80
2023-08-21T22:53:14.860Z,11.30
2023-08-21T22:55:43.612Z,11.17
2023-08-21T22:58:11.464Z,11.60
2023-08-21T23:00:40.689Z,11.87
2023-08-21T23:03:08.582Z,12.17
2023-08-21T23:05:36.535Z,11.33
2023-08-21T23:08:04.849Z,11.07
2023-08-21T23:10:32.759Z,12.27
2023-08-21T23:13:00.646Z,11.70
2023-08-21T23:15:28.520Z,11.47
2023-08-21T23:17:58.246Z,11.77
2023-08-21T23:20:27.081Z,12.03
2023-08-21T23:22:54.928Z,11.80
2023-08-21T23:25:22.808Z,12.07
2023-08-21T23:27:50.709Z,12.23
2023-08-21T23:30:18.620Z,12.40
2023-08-21T23:32:46.545Z,12.00
2023-08-21T23:35:16.121Z,11.53
2023-08-21T23:37:44.003Z,12.37
2023-08-21T23:40:13.628Z,12.60
2023-08-21T23:42:41.543Z,11.90
2023-08-21T23:45:11.426Z,12.83
2023-08-21T23:47:39.906Z,12.53
2023-08-21T23:50:08.808Z,12.27
2023-08-21T23:52:38.522Z,12.37
2023-08-21T23:55:07.667Z,12.10
2023-08-21T23:57:36.128Z,12.20
